Airfield :
LOGIN :

Register | Disclaimer

   EN    FR    IT 

 










Legend :    VFR   Marginal VFR   IFR   Intensive IFR   Very Intensive IFR
Visi :
Ceiling :
>= 8 km
>= 3000ft
5 to 8 km
1000 to 3000 ft
1500m to 5 km
500 to 1000 ft
800 to 1500m
200 to 500 ft
< 800m
< 200 ft
Symbols :   Thunderstorms  Fog  Heavy snow  Heavy precipitations  Wind > 20 kt
SIGMETs :     Misc.  Thunderstorms  Icing  Turbulence  Mountain Waves  Volcanic Ashes






- Airport Elevation : 117 ft
- IATA code : NWI


EGSH - Norwich

CURRENT METAR :
  • 211220Z 23005KT 0300 R27/P1500 FG BKN001 03/02 Q1040 BECMG 2000 BR SCT001

EXPIRED METARs :
  • 211150Z 20004KT 0100 R27/0650 FG BKN001 02/02 Q1041
  • 211120Z 25004KT 220V280 0350 R27/1200 FG SCT001 02/01 Q1041
  • 211050Z 27004KT 240V310 0100 R27/0250 FG BKN001 01/01 Q1041 BECMG 2000 BR BKN002
  • 211020Z 26005KT 0100 R27/0300 FZFG BKN001 00/M01 Q1042 BECMG 2000 BR BKN002
  • 210950Z 23004KT 0100 R27/0325 FZFG OVC001 00/M00 Q1042 BECMG 2000 BR BKN002

TAF TAF EGSH
Valid from the 21 at 12:00 until the 21 at 21:00 UTC


211109Z 2112/2121 28005KT 0100 FG OVC001
BECMG 2112/2115 9999 NSW SCT008
TEMPO 2115/2121 9000 BKN008
PROB30 2119/2121 BKN004
ATIS : +44 1603 420 640



MET'MAP, your aeronautical weather chart ! - Copyright ORBIFLY December 2007 - Disclaimer

ORBIFLY MET'MAP TEAM :

Programming & Development : Alexandra Zaïnal
Concept & original design : Baudouin d'Aumeries
Assistance for programming : Marc-Olivier Méhu
Technical & hardware support : Manuel Goepfert

Contact : metmap@orbifly.com




SOURCES & CREDITS :

   NOAA